Time;durP1;ratioP1;P1;durP2;ratioP2;P2;SDS_P1;SDS_P2;PMS_P1;PMS_P2;Temp;Humidity;BMP_temperature;BMP_pressure;BME280_temperature;BME280_humidity;BME280_pressure;Samples;Min_cycle;Max_cycle;Signal;HPM_P1;HPM_P2
2024/03/04 00:01:30;;;;;;;;;;;;;;;;;;5092936;28;19915;-63
2024/03/04 00:03:55;;;;;;;;;;;;;;;;;;5089036;28;19912;-59
2024/03/04 00:06:21;;;;;;;;;;;;;;;;;;5083327;28;19922;-57
2024/03/04 00:08:46;;;;;;;;;;;;;;;;;;5085896;28;19920;-58
2024/03/04 00:11:11;;;;;;;;;;;;;;;;;;5084444;28;19944;-57
2024/03/04 00:13:36;;;;;;;;;;;;;;;;;;5088994;28;19919;-57
2024/03/04 00:16:05;;;;;;;;;;;;;;;;;;5086147;28;19912;-58
2024/03/04 00:18:30;;;;;;;;;;;;;;;;;;5085184;28;20352;-57
2024/03/04 00:20:55;;;;;;;;;;;;;;;;;;5089276;28;19939;-58
2024/03/04 00:23:21;;;;;;;;;;;;;;;;;;5084656;28;19928;-57
2024/03/04 00:25:46;;;;;;;;;;;;;;;;;;5085216;28;20361;-57
2024/03/04 00:28:11;;;;;;;;;;;;;;;;;;5086250;28;19916;-57
2024/03/04 00:30:36;;;;;;;;;;;;;;;;;;5083528;28;19912;-56
2024/03/04 00:33:02;;;;;;;;;;;;;;;;;;5086812;28;19916;-62
2024/03/04 00:35:27;;;;;;;;;;;;;;;;;;5086080;28;19912;-63
2024/03/04 00:37:52;;;;;;;;;;;;;;;;;;5083882;28;20342;-62
2024/03/04 00:40:17;;;;;;;;;;;;;;;;;;5085793;28;19928;-62
2024/03/04 00:42:43;;;;;;;;;;;;;;;;;;5088283;28;19969;-65
2024/03/04 00:45:08;;;;;;;;;;;;;;;;;;5087079;28;19923;-63
2024/03/04 00:47:34;;;;;;;;;;;;;;;;;;5090864;28;19916;-63
2024/03/04 00:49:59;;;;;;;;;;;;;;;;;;5082863;28;19912;-61
2024/03/04 00:52:25;;;;;;;;;;;;;;;;;;5082530;28;19927;-63
2024/03/04 00:54:50;;;;;;;;;;;;;;;;;;5082091;28;20616;-63
2024/03/04 00:57:15;;;;;;;;;;;;;;;;;;5087833;28;19912;-63
2024/03/04 00:59:40;;;;;;;;;;;;;;;;;;5091164;28;20284;-62
2024/03/04 01:02:05;;;;;;;;;;;;;;;;;;5081592;28;19916;-62
2024/03/04 01:04:31;;;;;;;;;;;;;;;;;;5085117;28;19917;-61
2024/03/04 01:06:56;;;;;;;;;;;;;;;;;;5087764;28;19931;-62
2024/03/04 01:09:21;;;;;;;;;;;;;;;;;;5084407;28;19965;-62
2024/03/04 01:11:46;;;;;;;;;;;;;;;;;;5088957;28;20399;-63
2024/03/04 01:14:12;;;;;;;;;;;;;;;;;;5084879;28;19912;-63
2024/03/04 01:16:37;;;;;;;;;;;;;;;;;;5084345;28;20018;-61
2024/03/04 01:19:04;;;;;;;;;;;;;;;;;;5088434;28;19930;-61
2024/03/04 01:21:29;;;;;;;;;;;;;;;;;;5088765;28;20237;-59
2024/03/04 01:23:56;;;;;;;;;;;;;;;;;;5084440;28;20403;-62
2024/03/04 01:26:23;;;;;;;;;;;;;;;;;;5083547;28;20502;-63
2024/03/04 01:28:48;;;;;;;;;;;;;;;;;;5089195;28;19923;-63
2024/03/04 01:31:14;;;;;;;;;;;;;;;;;;5079335;28;19916;-60
2024/03/04 01:33:40;;;;;;;;;;;;;;;;;;5078545;28;19966;-62
2024/03/04 01:36:05;;;;;;;;;;;;;;;;;;5088742;28;20003;-62
2024/03/04 01:38:30;;;;;;;;;;;;;;;;;;5082002;28;20027;-62
2024/03/04 01:40:57;;;;;;;;;;;;;;;;;;5085681;28;19928;-62
2024/03/04 01:43:22;;;;;;;;;;;;;;;;;;5086557;28;19998;-62
2024/03/04 01:45:47;;;;;;;;;;;;;;;;;;5082713;28;20016;-61
2024/03/04 01:48:13;;;;;;;;;;;;;;;;;;5084555;28;19920;-62
2024/03/04 01:50:39;;;;;;;;;;;;;;;;;;5088683;28;19974;-62
2024/03/04 01:53:04;;;;;;;;;;;;;;;;;;5084057;28;19943;-62
2024/03/04 01:55:30;;;;;;;;;;;;;;;;;;5083227;28;20400;-62
2024/03/04 01:57:55;;;;;;;;;;;;;;;;;;5085827;28;19922;-62
2024/03/04 02:00:20;;;;;;;;;;;;;;;;;;5077066;28;19912;-62
2024/03/04 02:02:45;;;;;;;;;;;;;;;;;;5085460;28;20308;-62
2024/03/04 02:05:10;;;;;;;;;;;;;;;;;;5084940;28;19919;-63
2024/03/04 02:07:37;;;;;;;;;;;;;;;;;;5085796;28;19957;-63
2024/03/04 02:10:03;;;;;;;;;;;;;;;;;;5083580;28;19912;-61
2024/03/04 02:12:28;;;;;;;;;;;;;;;;;;5091297;28;20348;-62
2024/03/04 02:14:53;;;;;;;;;;;;;;;;;;5076811;28;20022;-62
2024/03/04 02:17:18;;;;;;;;;;;;;;;;;;5084063;28;19920;-63
2024/03/04 02:19:44;;;;;;;;;;;;;;;;;;5091437;28;19912;-62
2024/03/04 02:22:09;;;;;;;;;;;;;;;;;;5082343;28;19920;-62
2024/03/04 02:24:34;;;;;;;;;;;;;;;;;;5083026;28;19912;-65
2024/03/04 02:26:59;;;;;;;;;;;;;;;;;;5084350;28;19939;-62
2024/03/04 02:29:25;;;;;;;;;;;;;;;;;;5082516;28;20411;-63
2024/03/04 02:31:50;;;;;;;;;;;;;;;;;;5084648;28;19916;-62
2024/03/04 02:34:16;;;;;;;;;;;;;;;;;;5087889;28;19916;-62
2024/03/04 02:36:41;;;;;;;;;;;;;;;;;;5081592;28;19912;-62
2024/03/04 02:39:10;;;;;;;;;;;;;;;;;;5088352;28;20357;-62
2024/03/04 02:41:36;;;;;;;;;;;;;;;;;;5082513;28;19924;-62
2024/03/04 02:44:01;;;;;;;;;;;;;;;;;;5084158;28;20461;-62
2024/03/04 02:46:26;;;;;;;;;;;;;;;;;;5082774;28;20383;-61
2024/03/04 02:48:54;;;;;;;;;;;;;;;;;;5084002;28;19951;-62
2024/03/04 02:51:20;;;;;;;;;;;;;;;;;;5085515;28;19918;-62
2024/03/04 02:53:45;;;;;;;;;;;;;;;;;;5088490;28;19912;-58
2024/03/04 02:56:11;;;;;;;;;;;;;;;;;;5087007;28;19916;-57
2024/03/04 02:58:36;;;;;;;;;;;;;;;;;;5087505;28;20629;-56
2024/03/04 03:01:02;;;;;;;;;;;;;;;;;;5086257;28;19919;-57
2024/03/04 03:03:27;;;;;;;;;;;;;;;;;;5090270;28;19920;-57
2024/03/04 03:05:52;;;;;;;;;;;;;;;;;;5088350;28;19969;-57
2024/03/04 03:08:17;;;;;;;;;;;;;;;;;;5084798;28;19940;-57
2024/03/04 03:10:44;;;;;;;;;;;;;;;;;;5092681;28;19927;-60
2024/03/04 03:13:09;;;;;;;;;;;;;;;;;;5087076;28;19916;-57
2024/03/04 03:15:34;;;;;;;;;;;;;;;;;;5090158;28;19916;-56
2024/03/04 03:17:59;;;;;;;;;;;;;;;;;;5091462;28;19997;-57
2024/03/04 03:20:25;;;;;;;;;;;;;;;;;;5088319;28;19931;-57
2024/03/04 03:22:50;;;;;;;;;;;;;;;;;;5085855;28;19916;-57
2024/03/04 03:25:15;;;;;;;;;;;;;;;;;;5087463;28;20386;-57
2024/03/04 03:27:40;;;;;;;;;;;;;;;;;;5087893;28;20282;-58
2024/03/04 03:30:05;;;;;;;;;;;;;;;;;;5087006;28;20407;-56
2024/03/04 03:32:30;;;;;;;;;;;;;;;;;;5089339;28;19912;-57
2024/03/04 03:34:55;;;;;;;;;;;;;;;;;;5091463;28;19908;-57
2024/03/04 03:37:20;;;;;;;;;;;;;;;;;;5086935;28;19912;-57
2024/03/04 03:39:46;;;;;;;;;;;;;;;;;;5087280;28;20022;-58
2024/03/04 03:42:11;;;;;;;;;;;;;;;;;;5085449;28;19982;-57
2024/03/04 03:44:36;;;;;;;;;;;;;;;;;;5087591;28;20615;-57
2024/03/04 03:47:01;;;;;;;;;;;;;;;;;;5086188;28;19920;-58
2024/03/04 03:49:26;;;;;;;;;;;;;;;;;;5090933;28;20011;-57
2024/03/04 03:51:51;;;;;;;;;;;;;;;;;;5087063;28;19991;-57
2024/03/04 03:54:17;;;;;;;;;;;;;;;;;;5087773;28;19965;-57
2024/03/04 03:56:42;;;;;;;;;;;;;;;;;;5084890;28;19973;-57
2024/03/04 03:59:07;;;;;;;;;;;;;;;;;;5088385;28;19912;-57
2024/03/04 04:01:32;;;;;;;;;;;;;;;;;;5089297;28;19950;-57
2024/03/04 04:03:57;;;;;;;;;;;;;;;;;;5086433;28;19927;-62
2024/03/04 04:06:22;;;;;;;;;;;;;;;;;;5088034;28;19921;-62
2024/03/04 04:08:47;;;;;;;;;;;;;;;;;;5082808;28;19923;-60
2024/03/04 04:11:12;;;;;;;;;;;;;;;;;;5088172;28;19918;-62
2024/03/04 04:13:38;;;;;;;;;;;;;;;;;;5085518;28;19965;-62
2024/03/04 04:16:03;;;;;;;;;;;;;;;;;;5089329;28;19915;-62
2024/03/04 04:18:28;;;;;;;;;;;;;;;;;;5084994;28;19916;-61
2024/03/04 04:20:53;;;;;;;;;;;;;;;;;;5087676;28;20368;-61
2024/03/04 04:23:18;;;;;;;;;;;;;;;;;;5087282;28;20349;-62
2024/03/04 04:25:43;;;;;;;;;;;;;;;;;;5085506;28;19969;-62
2024/03/04 04:28:10;;;;;;;;;;;;;;;;;;5086876;28;20007;-61
2024/03/04 04:30:36;;;;;;;;;;;;;;;;;;5085485;28;19926;-61
2024/03/04 04:33:01;;;;;;;;;;;;;;;;;;5085130;28;19912;-62
2024/03/04 04:35:26;;;;;;;;;;;;;;;;;;5084746;28;19922;-62
2024/03/04 04:37:51;;;;;;;;;;;;;;;;;;5086473;28;19948;-62
2024/03/04 04:40:17;;;;;;;;;;;;;;;;;;5082346;28;19928;-62
2024/03/04 04:42:42;;;;;;;;;;;;;;;;;;5089540;28;19928;-62
2024/03/04 04:45:07;;;;;;;;;;;;;;;;;;5085240;28;19928;-61
2024/03/04 04:47:32;;;;;;;;;;;;;;;;;;5083283;28;19931;-62
2024/03/04 04:49:57;;;;;;;;;;;;;;;;;;5084411;28;19994;-61
2024/03/04 04:52:22;;;;;;;;;;;;;;;;;;5088240;28;19938;-61
2024/03/04 04:54:48;;;;;;;;;;;;;;;;;;5085075;28;20330;-60
2024/03/04 04:57:13;;;;;;;;;;;;;;;;;;5086330;28;20325;-61
2024/03/04 04:59:38;;;;;;;;;;;;;;;;;;5079785;28;19916;-62
2024/03/04 05:02:03;;;;;;;;;;;;;;;;;;5088588;28;20384;-61
2024/03/04 05:04:29;;;;;;;;;;;;;;;;;;5084290;28;19912;-62
2024/03/04 05:06:54;;;;;;;;;;;;;;;;;;5079283;28;20357;-61
2024/03/04 05:09:19;;;;;;;;;;;;;;;;;;5084523;28;19927;-62
2024/03/04 05:11:44;;;;;;;;;;;;;;;;;;5086940;28;19916;-61
2024/03/04 05:14:11;;;;;;;;;;;;;;;;;;5079819;28;19912;-61
2024/03/04 05:16:36;;;;;;;;;;;;;;;;;;5085421;28;19919;-61
2024/03/04 05:19:02;;;;;;;;;;;;;;;;;;5084964;28;19912;-61
2024/03/04 05:21:27;;;;;;;;;;;;;;;;;;5077945;28;19916;-61
2024/03/04 05:23:52;;;;;;;;;;;;;;;;;;5087984;28;20053;-62
2024/03/04 05:26:17;;;;;;;;;;;;;;;;;;5088370;28;19920;-62
2024/03/04 05:28:43;;;;;;;;;;;;;;;;;;5085645;28;19927;-63
2024/03/04 05:31:08;;;;;;;;;;;;;;;;;;5084262;28;20437;-62
2024/03/04 05:33:36;;;;;;;;;;;;;;;;;;5087714;28;19908;-61
2024/03/04 05:36:04;;;;;;;;;;;;;;;;;;5080817;28;19951;-62
2024/03/04 05:38:29;;;;;;;;;;;;;;;;;;5077169;28;19908;-62
2024/03/04 05:40:54;;;;;;;;;;;;;;;;;;5084070;28;20303;-62
2024/03/04 05:43:19;;;;;;;;;;;;;;;;;;5083133;28;19967;-61
2024/03/04 05:45:44;;;;;;;;;;;;;;;;;;5084511;28;19924;-64
2024/03/04 05:48:10;;;;;;;;;;;;;;;;;;5087623;28;19920;-63
2024/03/04 05:50:35;;;;;;;;;;;;;;;;;;5083416;28;19912;-62
2024/03/04 05:53:00;;;;;;;;;;;;;;;;;;5082254;28;20321;-63
2024/03/04 05:55:26;;;;;;;;;;;;;;;;;;5081123;28;20007;-62
2024/03/04 05:57:52;;;;;;;;;;;;;;;;;;5079796;28;19916;-62
2024/03/04 06:00:17;;;;;;;;;;;;;;;;;;5083472;28;20421;-61
2024/03/04 06:02:42;;;;;;;;;;;;;;;;;;5086958;28;19955;-62
2024/03/04 06:05:07;;;;;;;;;;;;;;;;;;5082408;28;19920;-61
2024/03/04 06:07:32;;;;;;;;;;;;;;;;;;5082501;28;19916;-62
2024/03/04 06:09:58;;;;;;;;;;;;;;;;;;5085538;28;19916;-62
2024/03/04 06:12:23;;;;;;;;;;;;;;;;;;5081212;28;19995;-61
2024/03/04 06:14:48;;;;;;;;;;;;;;;;;;5083070;28;19921;-62
2024/03/04 06:17:13;;;;;;;;;;;;;;;;;;5083194;28;19944;-63
2024/03/04 06:19:38;;;;;;;;;;;;;;;;;;5081540;28;19912;-62
2024/03/04 06:22:04;;;;;;;;;;;;;;;;;;5083040;28;19913;-62
2024/03/04 06:24:31;;;;;;;;;;;;;;;;;;5083536;28;20379;-62
2024/03/04 06:26:56;;;;;;;;;;;;;;;;;;5087827;28;19927;-62
2024/03/04 06:29:21;;;;;;;;;;;;;;;;;;5092004;28;19917;-63
2024/03/04 06:31:47;;;;;;;;;;;;;;;;;;5088986;28;19921;-59
2024/03/04 06:34:12;;;;;;;;;;;;;;;;;;5088675;28;19916;-63
2024/03/04 06:36:37;;;;;;;;;;;;;;;;;;5081737;28;19926;-63
2024/03/04 06:39:02;;;;;;;;;;;;;;;;;;5089122;28;20360;-62
2024/03/04 06:41:27;;;;;;;;;;;;;;;;;;5087584;28;20464;-62
2024/03/04 06:43:52;;;;;;;;;;;;;;;;;;5081038;28;20611;-62
2024/03/04 06:46:17;;;;;;;;;;;;;;;;;;5078533;28;20414;-63
2024/03/04 06:48:43;;;;;;;;;;;;;;;;;;5083476;28;19912;-63
2024/03/04 06:51:09;;;;;;;;;;;;;;;;;;5084250;28;20396;-63
2024/03/04 06:53:34;;;;;;;;;;;;;;;;;;5088610;28;19912;-63
2024/03/04 06:55:59;;;;;;;;;;;;;;;;;;5090291;28;19915;-63
2024/03/04 06:58:24;;;;;;;;;;;;;;;;;;5085842;28;19920;-61
2024/03/04 07:00:51;;;;;;;;;;;;;;;;;;5084467;28;19916;-60
2024/03/04 07:03:17;;;;;;;;;;;;;;;;;;5090022;28;20274;-61
2024/03/04 07:05:42;;;;;;;;;;;;;;;;;;5088776;28;19916;-61
2024/03/04 07:08:07;;;;;;;;;;;;;;;;;;5089155;28;19920;-61
2024/03/04 07:10:32;;;;;;;;;;;;;;;;;;5091265;28;19920;-63
2024/03/04 07:12:57;;;;;;;;;;;;;;;;;;5084594;28;19916;-61
2024/03/04 07:15:22;;;;;;;;;;;;;;;;;;5085913;28;20411;-63
2024/03/04 07:17:47;;;;;;;;;;;;;;;;;;5086880;28;19927;-62
2024/03/04 07:20:13;;;;;;;;;;;;;;;;;;5080716;28;19916;-61
2024/03/04 07:22:38;;;;;;;;;;;;;;;;;;5087263;28;19961;-61
2024/03/04 07:25:04;;;;;;;;;;;;;;;;;;5081565;28;19909;-61
2024/03/04 07:27:29;;;;;;;;;;;;;;;;;;5086690;28;19988;-60
2024/03/04 07:29:57;;;;;;;;;;;;;;;;;;5082506;28;20431;-61
2024/03/04 07:32:40;;;;;;;;;;;;;;;;;;5083968;28;20284;-60
2024/03/04 07:35:05;;;;;;;;;;;;;;;;;;5083623;28;19908;-56
2024/03/04 07:37:33;;;;;;;;;;;;;;;;;;5079436;28;19912;-56
2024/03/04 07:39:58;;;;;;;;;;;;;;;;;;5084637;28;19993;-56
2024/03/04 07:42:24;;;;;;;;;;;;;;;;;;5086294;28;20386;-55
2024/03/04 07:44:49;;;;;;;;;;;;;;;;;;5078668;28;19948;-55
2024/03/04 07:47:14;;;;;;;;;;;;;;;;;;5086342;28;19931;-56
2024/03/04 07:49:39;;;;;;;;;;;;;;;;;;5085765;28;19959;-55
2024/03/04 07:52:04;;;;;;;;;;;;;;;;;;5089302;28;19919;-56
2024/03/04 07:54:29;;;;;;;;;;;;;;;;;;5082485;28;20031;-57
2024/03/04 07:56:54;;;;;;;;;;;;;;;;;;5081715;28;19998;-56
2024/03/04 07:59:20;;;;;;;;;;;;;;;;;;5085887;28;19912;-56
2024/03/04 08:01:45;;;;;;;;;;;;;;;;;;5086175;28;20276;-57
2024/03/04 08:04:10;;;;;;;;;;;;;;;;;;5083663;28;19974;-56
2024/03/04 08:06:35;;;;;;;;;;;;;;;;;;5083646;28;19916;-56
2024/03/04 08:09:00;;;;;;;;;;;;;;;;;;5088252;28;19912;-56
2024/03/04 08:11:26;;;;;;;;;;;;;;;;;;5083875;28;19965;-56
2024/03/04 08:13:51;;;;;;;;;;;;;;;;;;5087716;28;19912;-57
2024/03/04 08:16:16;;;;;;;;;;;;;;;;;;5084781;28;20038;-56
2024/03/04 08:18:41;;;;;;;;;;;;;;;;;;5080404;28;19927;-57
2024/03/04 08:21:07;;;;;;;;;;;;;;;;;;5082908;28;19966;-56
2024/03/04 08:23:33;;;;;;;;;;;;;;;;;;5082877;28;20053;-56
2024/03/04 08:25:58;;;;;;;;;;;;;;;;;;5082851;28;19923;-57
2024/03/04 08:28:23;;;;;;;;;;;;;;;;;;5085624;28;19919;-56
2024/03/04 08:30:48;;;;;;;;;;;;;;;;;;5087352;28;20003;-59
2024/03/04 08:33:15;;;;;;;;;;;;;;;;;;5083920;28;20364;-56
2024/03/04 08:35:40;;;;;;;;;;;;;;;;;;5085114;28;19912;-56
2024/03/04 08:38:05;;;;;;;;;;;;;;;;;;5085710;28;19981;-56
2024/03/04 08:40:31;;;;;;;;;;;;;;;;;;5084021;28;19985;-56
2024/03/04 08:42:57;;;;;;;;;;;;;;;;;;5082318;28;20392;-61
2024/03/04 08:45:22;;;;;;;;;;;;;;;;;;5086366;28;19947;-61
2024/03/04 08:47:47;;;;;;;;;;;;;;;;;;5075024;28;19965;-61
2024/03/04 08:50:12;;;;;;;;;;;;;;;;;;5084417;28;19916;-62
2024/03/04 08:52:37;;;;;;;;;;;;;;;;;;5077844;28;19957;-60
2024/03/04 08:55:03;;;;;;;;;;;;;;;;;;5084464;28;19958;-62
2024/03/04 08:57:28;;;;;;;;;;;;;;;;;;5083646;28;19939;-61
2024/03/04 08:59:53;;;;;;;;;;;;;;;;;;5081958;28;19936;-61
2024/03/04 09:02:18;;;;;;;;;;;;;;;;;;5082171;28;19919;-62
2024/03/04 09:04:47;;;;;;;;;;;;;;;;;;5086968;28;20373;-61
2024/03/04 09:07:12;;;;;;;;;;;;;;;;;;5081878;28;20357;-61
2024/03/04 09:09:38;;;;;;;;;;;;;;;;;;5080431;28;19923;-61
2024/03/04 09:12:03;;;;;;;;;;;;;;;;;;5084550;28;19908;-61
2024/03/04 09:14:29;;;;;;;;;;;;;;;;;;5080433;28;19959;-62
2024/03/04 09:16:54;;;;;;;;;;;;;;;;;;5086807;28;20443;-61
2024/03/04 09:19:19;;;;;;;;;;;;;;;;;;5083405;28;19943;-61
2024/03/04 09:21:45;;;;;;;;;;;;;;;;;;5085616;28;19965;-61
2024/03/04 09:24:10;;;;;;;;;;;;;;;;;;5062653;28;20271;-61
2024/03/04 09:26:35;;;;;;;;;;;;;;;;;;5084201;28;20017;-61
2024/03/04 09:29:01;;;;;;;;;;;;;;;;;;5080875;28;19981;-60
2024/03/04 09:31:26;;;;;;;;;;;;;;;;;;5085618;28;19912;-61
2024/03/04 09:33:52;;;;;;;;;;;;;;;;;;5085810;28;19941;-61
2024/03/04 09:36:17;;;;;;;;;;;;;;;;;;5085669;28;20373;-61
2024/03/04 09:38:43;;;;;;;;;;;;;;;;;;5087609;28;20282;-61
2024/03/04 09:41:08;;;;;;;;;;;;;;;;;;5073453;28;19928;-60
2024/03/04 09:43:33;;;;;;;;;;;;;;;;;;5082649;28;19912;-61
2024/03/04 09:45:58;;;;;;;;;;;;;;;;;;5083957;28;19920;-61
2024/03/04 09:48:23;;;;;;;;;;;;;;;;;;5085850;28;19912;-62
2024/03/04 09:50:48;;;;;;;;;;;;;;;;;;5089541;28;19912;-63
2024/03/04 09:53:15;;;;;;;;;;;;;;;;;;5083843;28;19944;-56
2024/03/04 09:55:40;;;;;;;;;;;;;;;;;;5084086;28;19919;-57
2024/03/04 09:58:05;;;;;;;;;;;;;;;;;;5084196;28;19912;-57
2024/03/04 10:00:30;;;;;;;;;;;;;;;;;;5084984;28;19912;-57
2024/03/04 10:02:55;;;;;;;;;;;;;;;;;;5086866;28;20057;-57
2024/03/04 10:05:21;;;;;;;;;;;;;;;;;;5086110;28;20003;-61
2024/03/04 10:07:46;;;;;;;;;;;;;;;;;;5085453;28;20121;-62
2024/03/04 10:10:12;;;;;;;;;;;;;;;;;;5084366;28;19923;-62
2024/03/04 10:12:37;;;;;;;;;;;;;;;;;;5086672;28;19917;-62
2024/03/04 10:15:02;;;;;;;;;;;;;;;;;;5090680;28;20006;-62
2024/03/04 10:17:28;;;;;;;;;;;;;;;;;;5085453;28;19967;-62
2024/03/04 10:19:53;;;;;;;;;;;;;;;;;;5086545;28;19916;-62
2024/03/04 10:22:18;;;;;;;;;;;;;;;;;;5085092;28;20395;-63
2024/03/04 10:24:43;;;;;;;;;;;;;;;;;;5088697;28;20372;-62
2024/03/04 10:27:08;;;;;;;;;;;;;;;;;;5082767;28;19916;-61
2024/03/04 10:29:33;;;;;;;;;;;;;;;;;;5083668;28;20342;-62
2024/03/04 10:31:58;;;;;;;;;;;;;;;;;;5085542;28;19917;-62
2024/03/04 10:34:23;;;;;;;;;;;;;;;;;;5086135;28;19912;-62
2024/03/04 10:36:51;;;;;;;;;;;;;;;;;;5080829;28;19916;-62
2024/03/04 10:39:16;;;;;;;;;;;;;;;;;;5075357;28;19963;-62
2024/03/04 10:41:41;;;;;;;;;;;;;;;;;;5079280;28;19956;-62
2024/03/04 10:44:06;;;;;;;;;;;;;;;;;;5086239;28;19938;-62
2024/03/04 10:46:33;;;;;;;;;;;;;;;;;;5082248;28;19916;-62
2024/03/04 10:48:58;;;;;;;;;;;;;;;;;;5087244;28;20281;-62
2024/03/04 10:51:26;;;;;;;;;;;;;;;;;;5085337;28;20385;-63
2024/03/04 10:53:51;;;;;;;;;;;;;;;;;;5082127;28;19918;-63
2024/03/04 10:56:16;;;;;;;;;;;;;;;;;;5083857;28;19912;-64
2024/03/04 10:58:41;;;;;;;;;;;;;;;;;;5085644;28;19963;-62
2024/03/04 11:01:07;;;;;;;;;;;;;;;;;;5083347;28;20363;-61
2024/03/04 11:03:32;;;;;;;;;;;;;;;;;;5088016;28;20364;-62
2024/03/04 11:05:57;;;;;;;;;;;;;;;;;;5077164;28;19934;-61
2024/03/04 11:08:23;;;;;;;;;;;;;;;;;;5084523;28;19916;-63
2024/03/04 11:10:48;;;;;;;;;;;;;;;;;;5082128;28;19913;-62
2024/03/04 11:13:14;;;;;;;;;;;;;;;;;;5082887;28;19929;-62
2024/03/04 11:15:39;;;;;;;;;;;;;;;;;;5087505;28;19916;-57
2024/03/04 11:18:05;;;;;;;;;;;;;;;;;;5090916;28;19912;-57
2024/03/04 11:20:30;;;;;;;;;;;;;;;;;;5088648;28;19916;-57
2024/03/04 11:22:55;;;;;;;;;;;;;;;;;;5089200;28;20300;-58
2024/03/04 11:25:20;;;;;;;;;;;;;;;;;;5091940;28;19912;-57
2024/03/04 11:27:45;;;;;;;;;;;;;;;;;;5083504;28;19927;-57
2024/03/04 11:30:10;;;;;;;;;;;;;;;;;;5080515;28;20535;-57
2024/03/04 11:32:35;;;;;;;;;;;;;;;;;;5089000;28;19912;-57
2024/03/04 11:35:05;;;;;;;;;;;;;;;;;;5087750;28;19919;-57
2024/03/04 11:37:31;;;;;;;;;;;;;;;;;;5085856;28;19944;-57
2024/03/04 11:39:56;;;;;;;;;;;;;;;;;;5085434;28;20484;-57
2024/03/04 11:42:21;;;;;;;;;;;;;;;;;;5088822;28;19923;-58
2024/03/04 11:44:46;;;;;;;;;;;;;;;;;;5087418;28;19995;-58
2024/03/04 11:47:11;;;;;;;;;;;;;;;;;;5083755;28;19962;-58
2024/03/04 11:49:36;;;;;;;;;;;;;;;;;;5090086;28;19920;-58
2024/03/04 11:52:02;;;;;;;;;;;;;;;;;;5082380;28;19913;-58
2024/03/04 11:54:27;;;;;;;;;;;;;;;;;;5084889;28;19920;-57
2024/03/04 11:56:52;;;;;;;;;;;;;;;;;;5085424;28;20280;-57
2024/03/04 11:59:17;;;;;;;;;;;;;;;;;;5081267;28;19967;-57
2024/03/04 12:01:43;;;;;;;;;;;;;;;;;;5082529;28;20354;-58
2024/03/04 12:04:08;;;;;;;;;;;;;;;;;;5085828;28;19924;-57
2024/03/04 12:06:33;;;;;;;;;;;;;;;;;;5082700;28;20409;-57
2024/03/04 12:09:00;;;;;;;;;;;;;;;;;;5082425;28;19929;-57
2024/03/04 12:11:25;;;;;;;;;;;;;;;;;;5086389;28;19912;-57
2024/03/04 12:13:50;;;;;;;;;;;;;;;;;;5079904;28;19919;-58
2024/03/04 12:16:15;;;;;;;;;;;;;;;;;;5092353;28;20383;-58
2024/03/04 12:18:41;;;;;;;;;;;;;;;;;;5085175;28;19916;-57
2024/03/04 12:21:07;;;;;;;;;;;;;;;;;;5084053;28;19912;-56
2024/03/04 12:23:32;;;;;;;;;;;;;;;;;;5083120;28;19935;-62
2024/03/04 12:25:57;;;;;;;;;;;;;;;;;;5085775;28;20277;-62
2024/03/04 12:28:22;;;;;;;;;;;;;;;;;;5080406;28;19916;-62
2024/03/04 12:30:47;;;;;;;;;;;;;;;;;;5079175;28;19928;-61
2024/03/04 12:33:12;;;;;;;;;;;;;;;;;;5082609;28;19912;-62
2024/03/04 12:35:37;;;;;;;;;;;;;;;;;;5081768;28;19916;-62
2024/03/04 12:38:03;;;;;;;;;;;;;;;;;;5082787;28;19909;-62
2024/03/04 12:40:28;;;;;;;;;;;;;;;;;;5088084;28;20026;-61
2024/03/04 12:42:53;;;;;;;;;;;;;;;;;;5086471;28;19923;-63
2024/03/04 12:45:18;;;;;;;;;;;;;;;;;;5082227;28;20429;-62
2024/03/04 12:47:43;;;;;;;;;;;;;;;;;;5086361;28;19919;-62
2024/03/04 12:50:10;;;;;;;;;;;;;;;;;;5079785;28;19995;-64
2024/03/04 12:52:35;;;;;;;;;;;;;;;;;;5077851;28;19919;-62
2024/03/04 12:55:00;;;;;;;;;;;;;;;;;;5083038;28;19908;-63
2024/03/04 12:57:25;;;;;;;;;;;;;;;;;;5086812;28;19916;-62
2024/03/04 12:59:50;;;;;;;;;;;;;;;;;;5078283;28;19935;-62
2024/03/04 13:02:15;;;;;;;;;;;;;;;;;;5087628;28;19928;-62
2024/03/04 13:04:41;;;;;;;;;;;;;;;;;;5075555;28;20231;-62
2024/03/04 13:07:07;;;;;;;;;;;;;;;;;;5082393;28;19981;-62
2024/03/04 13:09:32;;;;;;;;;;;;;;;;;;5084353;28;20434;-62
2024/03/04 13:11:57;;;;;;;;;;;;;;;;;;5081787;28;19969;-62
2024/03/04 13:14:22;;;;;;;;;;;;;;;;;;5078691;28;19957;-62
2024/03/04 13:16:50;;;;;;;;;;;;;;;;;;5081590;28;20832;-61
2024/03/04 13:19:16;;;;;;;;;;;;;;;;;;5083358;28;19998;-61
2024/03/04 13:21:41;;;;;;;;;;;;;;;;;;5081080;28;20054;-62
2024/03/04 13:24:06;;;;;;;;;;;;;;;;;;5087617;28;19963;-62
2024/03/04 13:26:31;;;;;;;;;;;;;;;;;;5081139;28;19917;-62
2024/03/04 13:28:56;;;;;;;;;;;;;;;;;;5082841;28;19908;-62
2024/03/04 13:31:21;;;;;;;;;;;;;;;;;;5077368;28;19912;-62
2024/03/04 13:33:47;;;;;;;;;;;;;;;;;;5085934;28;19908;-62
2024/03/04 13:36:12;;;;;;;;;;;;;;;;;;5079190;28;19924;-62
2024/03/04 13:38:37;;;;;;;;;;;;;;;;;;5084592;28;19915;-60
2024/03/04 13:41:02;;;;;;;;;;;;;;;;;;5084716;28;20246;-61
2024/03/04 13:43:27;;;;;;;;;;;;;;;;;;5080168;28;19920;-61
2024/03/04 13:45:54;;;;;;;;;;;;;;;;;;5087155;28;20445;-62
2024/03/04 13:48:19;;;;;;;;;;;;;;;;;;5084022;28;19938;-62
2024/03/04 13:50:45;;;;;;;;;;;;;;;;;;5078054;28;19917;-62
2024/03/04 13:53:10;;;;;;;;;;;;;;;;;;5079928;28;19916;-62
2024/03/04 13:55:35;;;;;;;;;;;;;;;;;;5087659;28;19937;-62
2024/03/04 13:58:00;;;;;;;;;;;;;;;;;;5076328;28;19912;-62
2024/03/04 14:00:25;;;;;;;;;;;;;;;;;;5081414;28;19915;-61
2024/03/04 14:02:50;;;;;;;;;;;;;;;;;;5084638;28;19923;-61
2024/03/04 14:05:15;;;;;;;;;;;;;;;;;;5080309;28;19966;-61
2024/03/04 14:07:41;;;;;;;;;;;;;;;;;;5062841;28;19922;-61
2024/03/04 14:10:10;;;;;;;;;;;;;;;;;;5081504;28;19923;-62
2024/03/04 14:12:35;;;;;;;;;;;;;;;;;;5082845;28;19958;-61
2024/03/04 14:15:00;;;;;;;;;;;;;;;;;;5079945;28;19912;-61
2024/03/04 14:17:25;;;;;;;;;;;;;;;;;;5085387;28;20006;-61
2024/03/04 14:19:50;;;;;;;;;;;;;;;;;;5082301;28;19945;-60
2024/03/04 14:22:15;;;;;;;;;;;;;;;;;;5086529;28;19908;-60
2024/03/04 14:24:40;;;;;;;;;;;;;;;;;;5085647;28;19919;-61
2024/03/04 14:27:06;;;;;;;;;;;;;;;;;;5079665;28;19920;-62
2024/03/04 14:29:31;;;;;;;;;;;;;;;;;;5080351;28;19913;-61
2024/03/04 14:31:56;;;;;;;;;;;;;;;;;;5087900;28;20004;-61
2024/03/04 14:34:21;;;;;;;;;;;;;;;;;;5083535;28;19931;-61
2024/03/04 14:36:46;;;;;;;;;;;;;;;;;;5077331;28;19932;-61
2024/03/04 14:39:12;;;;;;;;;;;;;;;;;;5083819;28;20439;-61
2024/03/04 14:41:37;;;;;;;;;;;;;;;;;;5083755;28;19932;-62
2024/03/04 14:44:02;;;;;;;;;;;;;;;;;;5078364;28;20288;-56
2024/03/04 14:46:27;;;;;;;;;;;;;;;;;;5082834;28;20022;-56
2024/03/04 14:48:53;;;;;;;;;;;;;;;;;;5085647;28;19912;-56
2024/03/04 14:51:18;;;;;;;;;;;;;;;;;;5084640;28;20546;-56
2024/03/04 14:53:44;;;;;;;;;;;;;;;;;;5084974;28;19939;-56
2024/03/04 14:56:09;;;;;;;;;;;;;;;;;;5084518;28;19923;-56
2024/03/04 14:58:34;;;;;;;;;;;;;;;;;;5083339;28;19966;-60
2024/03/04 15:00:59;;;;;;;;;;;;;;;;;;5083052;28;20432;-57
2024/03/04 15:03:25;;;;;;;;;;;;;;;;;;5083530;28;19912;-57
2024/03/04 15:05:51;;;;;;;;;;;;;;;;;;5085637;28;19920;-57
2024/03/04 15:08:16;;;;;;;;;;;;;;;;;;5079685;28;20381;-57
2024/03/04 15:10:41;;;;;;;;;;;;;;;;;;5086741;28;20581;-58
2024/03/04 15:13:07;;;;;;;;;;;;;;;;;;5082064;28;19916;-57
2024/03/04 15:15:32;;;;;;;;;;;;;;;;;;5083809;28;20343;-58
2024/03/04 15:17:57;;;;;;;;;;;;;;;;;;5084812;28;19927;-59
2024/03/04 15:20:23;;;;;;;;;;;;;;;;;;5083714;28;20323;-58
2024/03/04 15:22:48;;;;;;;;;;;;;;;;;;5086501;28;19948;-58
2024/03/04 15:25:16;;;;;;;;;;;;;;;;;;5088647;28;19913;-58
2024/03/04 15:27:44;;;;;;;;;;;;;;;;;;5086058;28;20388;-57
2024/03/04 15:30:09;;;;;;;;;;;;;;;;;;5086768;28;19943;-58
2024/03/04 15:32:34;;;;;;;;;;;;;;;;;;5087732;28;19916;-58
2024/03/04 15:35:00;;;;;;;;;;;;;;;;;;5078532;28;19916;-58
2024/03/04 15:37:25;;;;;;;;;;;;;;;;;;5087225;28;19955;-57
2024/03/04 15:39:50;;;;;;;;;;;;;;;;;;5083143;28;19924;-58
2024/03/04 15:42:16;;;;;;;;;;;;;;;;;;5087241;28;19970;-58
2024/03/04 15:44:41;;;;;;;;;;;;;;;;;;5083926;28;19962;-58
2024/03/04 15:47:06;;;;;;;;;;;;;;;;;;5086585;28;20368;-56
2024/03/04 15:49:31;;;;;;;;;;;;;;;;;;5080078;28;19919;-57
2024/03/04 15:51:56;;;;;;;;;;;;;;;;;;5084056;28;19921;-58
2024/03/04 15:54:21;;;;;;;;;;;;;;;;;;5090286;28;19919;-64
2024/03/04 15:56:46;;;;;;;;;;;;;;;;;;5091019;28;20022;-64
2024/03/04 15:59:13;;;;;;;;;;;;;;;;;;5093818;28;19915;-61
2024/03/04 16:01:38;;;;;;;;;;;;;;;;;;5092778;28;19931;-62
2024/03/04 16:04:03;;;;;;;;;;;;;;;;;;5086210;28;19912;-57
2024/03/04 16:06:28;;;;;;;;;;;;;;;;;;5087711;28;19926;-58
2024/03/04 16:08:53;;;;;;;;;;;;;;;;;;5087919;28;19999;-57
2024/03/04 16:11:18;;;;;;;;;;;;;;;;;;5081679;28;19916;-58
2024/03/04 16:13:44;;;;;;;;;;;;;;;;;;5083676;28;20011;-58
2024/03/04 16:16:09;;;;;;;;;;;;;;;;;;5088344;28;19961;-58
2024/03/04 16:18:34;;;;;;;;;;;;;;;;;;5083713;28;20388;-58
2024/03/04 16:20:59;;;;;;;;;;;;;;;;;;5083353;28;20390;-59
2024/03/04 16:23:24;;;;;;;;;;;;;;;;;;5082079;28;19966;-58
2024/03/04 16:25:49;;;;;;;;;;;;;;;;;;5083112;28;19916;-57
2024/03/04 16:28:14;;;;;;;;;;;;;;;;;;5084388;28;20270;-57
2024/03/04 16:30:40;;;;;;;;;;;;;;;;;;5085368;28;19913;-58
2024/03/04 16:33:05;;;;;;;;;;;;;;;;;;5083130;28;20284;-58